sensor_id;sensor_type;location;lat;lon;timestamp;P1;durP1;ratioP1;P2;durP2;ratioP2
23800;SDS011;12081;48.614;10.226;2024-03-08T00:01:13;27.77;;;16.57;;
23800;SDS011;12081;48.614;10.226;2024-03-08T00:04:00;27.73;;;16.30;;
23800;SDS011;12081;48.614;10.226;2024-03-08T00:06:44;25.77;;;15.97;;
23800;SDS011;12081;48.614;10.226;2024-03-08T00:09:29;28.97;;;16.80;;
23800;SDS011;12081;48.614;10.226;2024-03-08T00:12:14;32.33;;;17.93;;
23800;SDS011;12081;48.614;10.226;2024-03-08T00:14:58;26.73;;;16.00;;
23800;SDS011;12081;48.614;10.226;2024-03-08T00:17:43;27.53;;;17.37;;
23800;SDS011;12081;48.614;10.226;2024-03-08T00:20:28;26.90;;;16.83;;
23800;SDS011;12081;48.614;10.226;2024-03-08T00:23:13;32.13;;;16.93;;
23800;SDS011;12081;48.614;10.226;2024-03-08T00:25:59;29.03;;;16.67;;
23800;SDS011;12081;48.614;10.226;2024-03-08T00:28:44;28.27;;;17.00;;
23800;SDS011;12081;48.614;10.226;2024-03-08T00:31:28;28.17;;;16.57;;
23800;SDS011;12081;48.614;10.226;2024-03-08T00:34:14;26.70;;;16.43;;
23800;SDS011;12081;48.614;10.226;2024-03-08T00:36:59;27.77;;;17.23;;
23800;SDS011;12081;48.614;10.226;2024-03-08T00:39:44;30.30;;;17.23;;
23800;SDS011;12081;48.614;10.226;2024-03-08T00:42:28;25.43;;;15.80;;
23800;SDS011;12081;48.614;10.226;2024-03-08T00:45:13;29.40;;;16.40;;
23800;SDS011;12081;48.614;10.226;2024-03-08T00:47:57;26.50;;;16.97;;
23800;SDS011;12081;48.614;10.226;2024-03-08T00:50:42;29.57;;;16.40;;
23800;SDS011;12081;48.614;10.226;2024-03-08T00:53:28;29.10;;;16.50;;
23800;SDS011;12081;48.614;10.226;2024-03-08T00:56:13;27.07;;;16.07;;
23800;SDS011;12081;48.614;10.226;2024-03-08T00:58:58;25.60;;;16.37;;
23800;SDS011;12081;48.614;10.226;2024-03-08T01:01:42;28.43;;;17.37;;
23800;SDS011;12081;48.614;10.226;2024-03-08T01:04:27;25.77;;;15.97;;
23800;SDS011;12081;48.614;10.226;2024-03-08T01:07:12;27.97;;;16.67;;
23800;SDS011;12081;48.614;10.226;2024-03-08T01:09:57;29.47;;;17.43;;
23800;SDS011;12081;48.614;10.226;2024-03-08T01:12:41;30.40;;;17.23;;
23800;SDS011;12081;48.614;10.226;2024-03-08T01:15:29;29.00;;;17.07;;
23800;SDS011;12081;48.614;10.226;2024-03-08T01:18:14;28.97;;;15.77;;
23800;SDS011;12081;48.614;10.226;2024-03-08T01:20:58;28.50;;;16.03;;
23800;SDS011;12081;48.614;10.226;2024-03-08T01:23:43;32.23;;;17.90;;
23800;SDS011;12081;48.614;10.226;2024-03-08T01:26:27;30.93;;;18.20;;
23800;SDS011;12081;48.614;10.226;2024-03-08T01:29:13;26.30;;;16.17;;
23800;SDS011;12081;48.614;10.226;2024-03-08T01:31:57;26.17;;;16.40;;
23800;SDS011;12081;48.614;10.226;2024-03-08T01:34:45;29.80;;;17.60;;
23800;SDS011;12081;48.614;10.226;2024-03-08T01:37:29;29.83;;;17.10;;
23800;SDS011;12081;48.614;10.226;2024-03-08T01:40:14;31.60;;;16.47;;
23800;SDS011;12081;48.614;10.226;2024-03-08T01:43:14;28.50;;;17.17;;
23800;SDS011;12081;48.614;10.226;2024-03-08T01:46:09;27.97;;;16.37;;
23800;SDS011;12081;48.614;10.226;2024-03-08T01:48:56;33.63;;;18.10;;
23800;SDS011;12081;48.614;10.226;2024-03-08T01:51:41;29.53;;;17.40;;
23800;SDS011;12081;48.614;10.226;2024-03-08T01:54:26;28.23;;;16.90;;
23800;SDS011;12081;48.614;10.226;2024-03-08T01:57:11;32.10;;;16.93;;
23800;SDS011;12081;48.614;10.226;2024-03-08T01:59:56;31.50;;;18.00;;
23800;SDS011;12081;48.614;10.226;2024-03-08T02:02:40;34.00;;;17.67;;
23800;SDS011;12081;48.614;10.226;2024-03-08T02:05:27;29.33;;;16.73;;
23800;SDS011;12081;48.614;10.226;2024-03-08T02:08:12;30.07;;;17.33;;
23800;SDS011;12081;48.614;10.226;2024-03-08T02:10:58;29.87;;;18.00;;
23800;SDS011;12081;48.614;10.226;2024-03-08T02:13:43;30.90;;;18.00;;
23800;SDS011;12081;48.614;10.226;2024-03-08T02:16:27;30.23;;;17.17;;
23800;SDS011;12081;48.614;10.226;2024-03-08T02:19:12;27.90;;;16.27;;
23800;SDS011;12081;48.614;10.226;2024-03-08T02:21:56;31.50;;;17.80;;
23800;SDS011;12081;48.614;10.226;2024-03-08T02:24:42;29.60;;;17.57;;
23800;SDS011;12081;48.614;10.226;2024-03-08T02:27:26;32.03;;;18.33;;
23800;SDS011;12081;48.614;10.226;2024-03-08T02:30:13;34.10;;;19.27;;
23800;SDS011;12081;48.614;10.226;2024-03-08T02:32:58;26.63;;;16.83;;
23800;SDS011;12081;48.614;10.226;2024-03-08T02:35:45;32.47;;;18.17;;
23800;SDS011;12081;48.614;10.226;2024-03-08T02:38:30;31.33;;;17.83;;
23800;SDS011;12081;48.614;10.226;2024-03-08T02:41:29;34.03;;;19.00;;
23800;SDS011;12081;48.614;10.226;2024-03-08T02:44:13;34.50;;;17.43;;
23800;SDS011;12081;48.614;10.226;2024-03-08T02:46:59;28.33;;;17.40;;
23800;SDS011;12081;48.614;10.226;2024-03-08T02:53:11;28.33;;;16.93;;
23800;SDS011;12081;48.614;10.226;2024-03-08T02:55:56;34.57;;;18.50;;
23800;SDS011;12081;48.614;10.226;2024-03-08T02:58:40;30.73;;;18.33;;
23800;SDS011;12081;48.614;10.226;2024-03-08T03:01:26;32.83;;;17.93;;
23800;SDS011;12081;48.614;10.226;2024-03-08T03:04:10;31.93;;;18.57;;
23800;SDS011;12081;48.614;10.226;2024-03-08T03:06:55;30.33;;;17.57;;
23800;SDS011;12081;48.614;10.226;2024-03-08T03:09:39;33.43;;;18.60;;
23800;SDS011;12081;48.614;10.226;2024-03-08T03:12:24;33.83;;;19.30;;
23800;SDS011;12081;48.614;10.226;2024-03-08T03:15:10;36.83;;;19.03;;
23800;SDS011;12081;48.614;10.226;2024-03-08T03:17:55;32.90;;;18.43;;
23800;SDS011;12081;48.614;10.226;2024-03-08T03:20:40;27.93;;;17.90;;
23800;SDS011;12081;48.614;10.226;2024-03-08T03:23:26;39.30;;;20.60;;
23800;SDS011;12081;48.614;10.226;2024-03-08T03:26:10;41.57;;;19.80;;
23800;SDS011;12081;48.614;10.226;2024-03-08T03:28:56;33.60;;;19.07;;
23800;SDS011;12081;48.614;10.226;2024-03-08T03:31:41;35.47;;;19.00;;
23800;SDS011;12081;48.614;10.226;2024-03-08T03:34:25;34.30;;;17.97;;
23800;SDS011;12081;48.614;10.226;2024-03-08T03:37:10;36.07;;;20.23;;
23800;SDS011;12081;48.614;10.226;2024-03-08T03:39:57;39.80;;;20.30;;
23800;SDS011;12081;48.614;10.226;2024-03-08T03:42:42;37.57;;;20.33;;
23800;SDS011;12081;48.614;10.226;2024-03-08T03:45:27;36.57;;;19.50;;
23800;SDS011;12081;48.614;10.226;2024-03-08T03:48:11;33.27;;;19.63;;
23800;SDS011;12081;48.614;10.226;2024-03-08T03:50:56;35.90;;;20.23;;
23800;SDS011;12081;48.614;10.226;2024-03-08T03:53:40;35.80;;;18.43;;
23800;SDS011;12081;48.614;10.226;2024-03-08T03:56:25;32.70;;;18.97;;
23800;SDS011;12081;48.614;10.226;2024-03-08T03:59:10;32.30;;;16.97;;
23800;SDS011;12081;48.614;10.226;2024-03-08T04:01:55;35.87;;;19.47;;
23800;SDS011;12081;48.614;10.226;2024-03-08T04:04:40;34.90;;;20.73;;
23800;SDS011;12081;48.614;10.226;2024-03-08T04:07:24;37.87;;;18.93;;
23800;SDS011;12081;48.614;10.226;2024-03-08T04:10:09;36.07;;;19.53;;
23800;SDS011;12081;48.614;10.226;2024-03-08T04:12:55;33.67;;;20.30;;
23800;SDS011;12081;48.614;10.226;2024-03-08T04:15:40;33.23;;;19.87;;
23800;SDS011;12081;48.614;10.226;2024-03-08T04:18:28;31.00;;;17.30;;
23800;SDS011;12081;48.614;10.226;2024-03-08T04:21:12;34.40;;;20.17;;
23800;SDS011;12081;48.614;10.226;2024-03-08T04:23:57;34.17;;;20.50;;
23800;SDS011;12081;48.614;10.226;2024-03-08T04:26:41;38.03;;;20.00;;
23800;SDS011;12081;48.614;10.226;2024-03-08T04:29:26;34.00;;;19.43;;
23800;SDS011;12081;48.614;10.226;2024-03-08T04:32:11;33.00;;;19.53;;
23800;SDS011;12081;48.614;10.226;2024-03-08T04:34:56;32.57;;;19.63;;
23800;SDS011;12081;48.614;10.226;2024-03-08T04:37:41;31.63;;;18.70;;
23800;SDS011;12081;48.614;10.226;2024-03-08T04:40:26;34.47;;;19.60;;
23800;SDS011;12081;48.614;10.226;2024-03-08T04:43:10;34.80;;;20.33;;
23800;SDS011;12081;48.614;10.226;2024-03-08T04:45:55;36.77;;;20.57;;
23800;SDS011;12081;48.614;10.226;2024-03-08T04:48:40;38.83;;;22.90;;
23800;SDS011;12081;48.614;10.226;2024-03-08T04:51:26;36.33;;;20.60;;
23800;SDS011;12081;48.614;10.226;2024-03-08T04:54:10;33.47;;;19.00;;
23800;SDS011;12081;48.614;10.226;2024-03-08T04:56:54;31.70;;;19.80;;
23800;SDS011;12081;48.614;10.226;2024-03-08T04:59:39;36.00;;;20.03;;
23800;SDS011;12081;48.614;10.226;2024-03-08T05:02:24;37.10;;;20.47;;
23800;SDS011;12081;48.614;10.226;2024-03-08T05:05:08;36.53;;;20.57;;
23800;SDS011;12081;48.614;10.226;2024-03-08T05:07:56;34.63;;;19.93;;
23800;SDS011;12081;48.614;10.226;2024-03-08T05:10:40;34.73;;;19.90;;
23800;SDS011;12081;48.614;10.226;2024-03-08T05:13:25;33.73;;;17.47;;
23800;SDS011;12081;48.614;10.226;2024-03-08T05:16:10;37.40;;;21.03;;
23800;SDS011;12081;48.614;10.226;2024-03-08T05:18:55;31.10;;;18.23;;
23800;SDS011;12081;48.614;10.226;2024-03-08T05:21:40;28.53;;;17.63;;
23800;SDS011;12081;48.614;10.226;2024-03-08T05:24:24;28.97;;;17.20;;
23800;SDS011;12081;48.614;10.226;2024-03-08T05:27:09;36.23;;;19.53;;
23800;SDS011;12081;48.614;10.226;2024-03-08T05:29:53;33.23;;;19.40;;
23800;SDS011;12081;48.614;10.226;2024-03-08T05:32:38;34.27;;;19.80;;
23800;SDS011;12081;48.614;10.226;2024-03-08T05:35:22;30.10;;;17.50;;
23800;SDS011;12081;48.614;10.226;2024-03-08T05:38:08;35.00;;;20.63;;
23800;SDS011;12081;48.614;10.226;2024-03-08T05:40:52;33.97;;;19.17;;
23800;SDS011;12081;48.614;10.226;2024-03-08T05:43:38;36.73;;;20.77;;
23800;SDS011;12081;48.614;10.226;2024-03-08T05:46:22;34.13;;;19.87;;
23800;SDS011;12081;48.614;10.226;2024-03-08T05:49:07;30.20;;;17.47;;
23800;SDS011;12081;48.614;10.226;2024-03-08T05:51:53;37.47;;;20.80;;
23800;SDS011;12081;48.614;10.226;2024-03-08T05:54:38;38.60;;;21.23;;
23800;SDS011;12081;48.614;10.226;2024-03-08T05:57:22;35.50;;;19.53;;
23800;SDS011;12081;48.614;10.226;2024-03-08T06:00:08;31.83;;;18.57;;
23800;SDS011;12081;48.614;10.226;2024-03-08T06:02:55;33.77;;;18.77;;
23800;SDS011;12081;48.614;10.226;2024-03-08T06:05:39;34.97;;;20.13;;
23800;SDS011;12081;48.614;10.226;2024-03-08T06:08:25;34.73;;;19.67;;
23800;SDS011;12081;48.614;10.226;2024-03-08T06:11:13;34.40;;;19.23;;
23800;SDS011;12081;48.614;10.226;2024-03-08T06:13:58;33.87;;;19.70;;
23800;SDS011;12081;48.614;10.226;2024-03-08T06:16:46;35.47;;;19.27;;
23800;SDS011;12081;48.614;10.226;2024-03-08T06:19:31;26.67;;;15.73;;
23800;SDS011;12081;48.614;10.226;2024-03-08T06:22:15;33.40;;;18.10;;
23800;SDS011;12081;48.614;10.226;2024-03-08T06:25:00;28.97;;;18.63;;
23800;SDS011;12081;48.614;10.226;2024-03-08T06:27:44;30.53;;;17.97;;
23800;SDS011;12081;48.614;10.226;2024-03-08T06:30:35;31.63;;;18.40;;
23800;SDS011;12081;48.614;10.226;2024-03-08T06:33:19;29.43;;;17.30;;
23800;SDS011;12081;48.614;10.226;2024-03-08T06:36:04;33.10;;;19.47;;
23800;SDS011;12081;48.614;10.226;2024-03-08T06:38:48;32.23;;;18.30;;
23800;SDS011;12081;48.614;10.226;2024-03-08T06:41:33;30.43;;;15.93;;
23800;SDS011;12081;48.614;10.226;2024-03-08T06:44:18;31.97;;;18.90;;
23800;SDS011;12081;48.614;10.226;2024-03-08T06:47:05;31.43;;;17.37;;
23800;SDS011;12081;48.614;10.226;2024-03-08T06:49:50;29.80;;;17.83;;
23800;SDS011;12081;48.614;10.226;2024-03-08T06:52:35;29.63;;;18.13;;
23800;SDS011;12081;48.614;10.226;2024-03-08T06:55:20;31.23;;;18.57;;
23800;SDS011;12081;48.614;10.226;2024-03-08T06:58:04;33.20;;;18.37;;
23800;SDS011;12081;48.614;10.226;2024-03-08T07:00:50;30.07;;;18.37;;
23800;SDS011;12081;48.614;10.226;2024-03-08T07:03:37;30.43;;;19.10;;
23800;SDS011;12081;48.614;10.226;2024-03-08T07:06:22;32.60;;;18.37;;
23800;SDS011;12081;48.614;10.226;2024-03-08T07:09:07;33.37;;;19.60;;
23800;SDS011;12081;48.614;10.226;2024-03-08T07:11:51;33.43;;;18.23;;
23800;SDS011;12081;48.614;10.226;2024-03-08T07:14:38;32.63;;;17.67;;
23800;SDS011;12081;48.614;10.226;2024-03-08T07:17:24;35.23;;;18.83;;
23800;SDS011;12081;48.614;10.226;2024-03-08T07:20:08;27.97;;;17.80;;
23800;SDS011;12081;48.614;10.226;2024-03-08T07:22:55;31.53;;;18.43;;
23800;SDS011;12081;48.614;10.226;2024-03-08T07:25:39;30.67;;;18.73;;
23800;SDS011;12081;48.614;10.226;2024-03-08T07:28:22;31.23;;;18.40;;
23800;SDS011;12081;48.614;10.226;2024-03-08T07:31:07;37.30;;;20.50;;
23800;SDS011;12081;48.614;10.226;2024-03-08T07:33:57;29.50;;;17.53;;
23800;SDS011;12081;48.614;10.226;2024-03-08T07:36:42;35.77;;;18.93;;
23800;SDS011;12081;48.614;10.226;2024-03-08T07:39:27;32.93;;;19.87;;
23800;SDS011;12081;48.614;10.226;2024-03-08T07:42:12;33.60;;;18.80;;
23800;SDS011;12081;48.614;10.226;2024-03-08T07:44:56;32.80;;;19.53;;
23800;SDS011;12081;48.614;10.226;2024-03-08T07:47:41;35.03;;;20.33;;
23800;SDS011;12081;48.614;10.226;2024-03-08T07:50:26;35.63;;;20.20;;
23800;SDS011;12081;48.614;10.226;2024-03-08T07:53:12;32.23;;;17.87;;
23800;SDS011;12081;48.614;10.226;2024-03-08T07:55:56;36.23;;;19.97;;
23800;SDS011;12081;48.614;10.226;2024-03-08T07:58:40;37.17;;;19.27;;
23800;SDS011;12081;48.614;10.226;2024-03-08T08:01:25;33.50;;;19.33;;
23800;SDS011;12081;48.614;10.226;2024-03-08T08:04:09;37.60;;;20.27;;
23800;SDS011;12081;48.614;10.226;2024-03-08T08:06:56;36.03;;;19.83;;
23800;SDS011;12081;48.614;10.226;2024-03-08T08:09:40;42.63;;;22.33;;
23800;SDS011;12081;48.614;10.226;2024-03-08T08:12:26;35.23;;;19.43;;
23800;SDS011;12081;48.614;10.226;2024-03-08T08:15:12;38.53;;;20.00;;
23800;SDS011;12081;48.614;10.226;2024-03-08T08:17:58;44.10;;;22.37;;
23800;SDS011;12081;48.614;10.226;2024-03-08T08:20:42;32.33;;;18.63;;
23800;SDS011;12081;48.614;10.226;2024-03-08T08:23:27;37.13;;;18.53;;
23800;SDS011;12081;48.614;10.226;2024-03-08T08:26:11;34.13;;;20.87;;
23800;SDS011;12081;48.614;10.226;2024-03-08T08:28:55;34.93;;;20.00;;
23800;SDS011;12081;48.614;10.226;2024-03-08T08:31:40;34.33;;;19.10;;
23800;SDS011;12081;48.614;10.226;2024-03-08T08:34:25;39.10;;;19.40;;
23800;SDS011;12081;48.614;10.226;2024-03-08T08:37:10;33.57;;;18.83;;
23800;SDS011;12081;48.614;10.226;2024-03-08T08:39:54;37.23;;;17.93;;
23800;SDS011;12081;48.614;10.226;2024-03-08T08:42:39;39.23;;;20.57;;
23800;SDS011;12081;48.614;10.226;2024-03-08T08:45:24;35.77;;;18.43;;
23800;SDS011;12081;48.614;10.226;2024-03-08T08:48:08;36.47;;;19.57;;
23800;SDS011;12081;48.614;10.226;2024-03-08T08:50:53;37.97;;;20.00;;
23800;SDS011;12081;48.614;10.226;2024-03-08T08:53:42;32.70;;;18.23;;
23800;SDS011;12081;48.614;10.226;2024-03-08T08:56:26;37.43;;;19.73;;
23800;SDS011;12081;48.614;10.226;2024-03-08T08:59:12;36.73;;;20.83;;
23800;SDS011;12081;48.614;10.226;2024-03-08T09:02:02;36.33;;;19.87;;
23800;SDS011;12081;48.614;10.226;2024-03-08T09:04:49;35.90;;;20.10;;
23800;SDS011;12081;48.614;10.226;2024-03-08T09:07:34;39.47;;;20.50;;
23800;SDS011;12081;48.614;10.226;2024-03-08T09:10:18;40.27;;;19.43;;
23800;SDS011;12081;48.614;10.226;2024-03-08T09:13:03;35.20;;;20.10;;
23800;SDS011;12081;48.614;10.226;2024-03-08T09:15:48;36.13;;;20.07;;
23800;SDS011;12081;48.614;10.226;2024-03-08T09:18:32;41.17;;;21.33;;
23800;SDS011;12081;48.614;10.226;2024-03-08T09:21:17;40.17;;;20.63;;
23800;SDS011;12081;48.614;10.226;2024-03-08T09:24:01;35.43;;;20.03;;
23800;SDS011;12081;48.614;10.226;2024-03-08T09:26:45;33.10;;;20.13;;
23800;SDS011;12081;48.614;10.226;2024-03-08T09:29:30;30.80;;;18.70;;
23800;SDS011;12081;48.614;10.226;2024-03-08T09:32:15;35.40;;;19.07;;
23800;SDS011;12081;48.614;10.226;2024-03-08T09:35:00;35.90;;;19.10;;
23800;SDS011;12081;48.614;10.226;2024-03-08T09:37:45;29.40;;;17.93;;
23800;SDS011;12081;48.614;10.226;2024-03-08T09:40:35;33.23;;;17.87;;
23800;SDS011;12081;48.614;10.226;2024-03-08T09:43:19;34.83;;;20.97;;
23800;SDS011;12081;48.614;10.226;2024-03-08T09:46:04;27.83;;;16.73;;
23800;SDS011;12081;48.614;10.226;2024-03-08T09:48:50;34.27;;;20.00;;
23800;SDS011;12081;48.614;10.226;2024-03-08T09:51:35;35.97;;;19.20;;
23800;SDS011;12081;48.614;10.226;2024-03-08T09:54:20;33.87;;;19.23;;
23800;SDS011;12081;48.614;10.226;2024-03-08T10:00:47;26.23;;;15.13;;
23800;SDS011;12081;48.614;10.226;2024-03-08T10:03:32;31.60;;;18.40;;
23800;SDS011;12081;48.614;10.226;2024-03-08T10:06:18;36.87;;;19.50;;
23800;SDS011;12081;48.614;10.226;2024-03-08T10:09:07;42.37;;;22.83;;
23800;SDS011;12081;48.614;10.226;2024-03-08T10:11:57;36.53;;;20.50;;
23800;SDS011;12081;48.614;10.226;2024-03-08T10:14:42;33.97;;;20.63;;
23800;SDS011;12081;48.614;10.226;2024-03-08T10:17:27;34.50;;;19.07;;
23800;SDS011;12081;48.614;10.226;2024-03-08T10:20:16;33.10;;;18.73;;
23800;SDS011;12081;48.614;10.226;2024-03-08T10:23:02;29.03;;;17.30;;
23800;SDS011;12081;48.614;10.226;2024-03-08T10:25:49;34.37;;;18.57;;
23800;SDS011;12081;48.614;10.226;2024-03-08T10:28:33;32.33;;;19.37;;
23800;SDS011;12081;48.614;10.226;2024-03-08T10:31:19;34.40;;;19.40;;
23800;SDS011;12081;48.614;10.226;2024-03-08T10:34:04;30.93;;;18.27;;
23800;SDS011;12081;48.614;10.226;2024-03-08T10:36:49;30.43;;;18.77;;
23800;SDS011;12081;48.614;10.226;2024-03-08T10:39:35;32.57;;;17.67;;
23800;SDS011;12081;48.614;10.226;2024-03-08T10:42:21;29.40;;;18.03;;
23800;SDS011;12081;48.614;10.226;2024-03-08T10:45:15;30.20;;;18.60;;
23800;SDS011;12081;48.614;10.226;2024-03-08T10:51:06;34.23;;;19.40;;
23800;SDS011;12081;48.614;10.226;2024-03-08T10:53:54;27.50;;;17.03;;
23800;SDS011;12081;48.614;10.226;2024-03-08T10:56:41;37.10;;;20.17;;
23800;SDS011;12081;48.614;10.226;2024-03-08T10:59:26;29.43;;;16.67;;
23800;SDS011;12081;48.614;10.226;2024-03-08T11:02:12;28.93;;;17.10;;
23800;SDS011;12081;48.614;10.226;2024-03-08T11:04:57;28.37;;;18.07;;
23800;SDS011;12081;48.614;10.226;2024-03-08T11:07:42;26.67;;;16.57;;
23800;SDS011;12081;48.614;10.226;2024-03-08T11:10:27;27.27;;;15.87;;
23800;SDS011;12081;48.614;10.226;2024-03-08T11:19:23;25.47;;;16.37;;
23800;SDS011;12081;48.614;10.226;2024-03-08T11:22:12;22.97;;;15.37;;
23800;SDS011;12081;48.614;10.226;2024-03-08T11:25:31;23.80;;;15.70;;
23800;SDS011;12081;48.614;10.226;2024-03-08T11:28:20;26.37;;;16.17;;
23800;SDS011;12081;48.614;10.226;2024-03-08T11:34:48;24.07;;;15.80;;
23800;SDS011;12081;48.614;10.226;2024-03-08T11:37:34;23.47;;;15.73;;
23800;SDS011;12081;48.614;10.226;2024-03-08T11:40:19;21.30;;;15.67;;
23800;SDS011;12081;48.614;10.226;2024-03-08T11:43:06;22.83;;;15.77;;
23800;SDS011;12081;48.614;10.226;2024-03-08T11:45:51;24.57;;;17.30;;
23800;SDS011;12081;48.614;10.226;2024-03-08T11:48:53;24.60;;;16.80;;
23800;SDS011;12081;48.614;10.226;2024-03-08T11:51:41;21.73;;;14.97;;
23800;SDS011;12081;48.614;10.226;2024-03-08T11:54:28;21.90;;;15.33;;
23800;SDS011;12081;48.614;10.226;2024-03-08T11:57:13;25.07;;;14.67;;
23800;SDS011;12081;48.614;10.226;2024-03-08T11:59:59;21.53;;;15.83;;
23800;SDS011;12081;48.614;10.226;2024-03-08T12:05:56;24.97;;;15.90;;
23800;SDS011;12081;48.614;10.226;2024-03-08T12:08:43;22.37;;;14.87;;
23800;SDS011;12081;48.614;10.226;2024-03-08T12:11:32;20.83;;;15.43;;
23800;SDS011;12081;48.614;10.226;2024-03-08T12:14:18;22.47;;;15.10;;
23800;SDS011;12081;48.614;10.226;2024-03-08T12:17:04;19.30;;;13.30;;
23800;SDS011;12081;48.614;10.226;2024-03-08T12:19:49;22.60;;;16.13;;
23800;SDS011;12081;48.614;10.226;2024-03-08T12:22:41;21.83;;;14.80;;
23800;SDS011;12081;48.614;10.226;2024-03-08T12:25:27;22.23;;;16.40;;
23800;SDS011;12081;48.614;10.226;2024-03-08T12:28:21;19.83;;;14.83;;
23800;SDS011;12081;48.614;10.226;2024-03-08T12:31:09;19.93;;;15.40;;
23800;SDS011;12081;48.614;10.226;2024-03-08T12:33:56;19.20;;;14.20;;
23800;SDS011;12081;48.614;10.226;2024-03-08T12:36:48;20.47;;;15.17;;
23800;SDS011;12081;48.614;10.226;2024-03-08T12:39:37;18.27;;;14.13;;
23800;SDS011;12081;48.614;10.226;2024-03-08T12:42:24;20.17;;;15.37;;
23800;SDS011;12081;48.614;10.226;2024-03-08T12:45:09;18.73;;;14.00;;
23800;SDS011;12081;48.614;10.226;2024-03-08T12:47:54;21.73;;;15.00;;
23800;SDS011;12081;48.614;10.226;2024-03-08T12:50:40;21.13;;;15.43;;
23800;SDS011;12081;48.614;10.226;2024-03-08T12:53:24;21.37;;;15.03;;
23800;SDS011;12081;48.614;10.226;2024-03-08T12:56:12;20.37;;;13.93;;
23800;SDS011;12081;48.614;10.226;2024-03-08T12:59:01;20.73;;;14.83;;
23800;SDS011;12081;48.614;10.226;2024-03-08T13:01:46;24.07;;;15.33;;
23800;SDS011;12081;48.614;10.226;2024-03-08T13:04:31;21.60;;;16.43;;
23800;SDS011;12081;48.614;10.226;2024-03-08T13:07:16;23.43;;;16.03;;
23800;SDS011;12081;48.614;10.226;2024-03-08T13:10:00;22.33;;;16.10;;
23800;SDS011;12081;48.614;10.226;2024-03-08T13:12:45;19.93;;;15.03;;
23800;SDS011;12081;48.614;10.226;2024-03-08T13:15:30;23.73;;;15.57;;
23800;SDS011;12081;48.614;10.226;2024-03-08T13:18:17;24.97;;;15.57;;
23800;SDS011;12081;48.614;10.226;2024-03-08T13:21:03;21.90;;;15.07;;
23800;SDS011;12081;48.614;10.226;2024-03-08T13:23:51;19.57;;;14.67;;
23800;SDS011;12081;48.614;10.226;2024-03-08T13:26:37;20.13;;;14.17;;
23800;SDS011;12081;48.614;10.226;2024-03-08T13:29:22;19.47;;;13.87;;
23800;SDS011;12081;48.614;10.226;2024-03-08T13:32:06;21.90;;;15.07;;
23800;SDS011;12081;48.614;10.226;2024-03-08T13:34:55;19.83;;;14.10;;
23800;SDS011;12081;48.614;10.226;2024-03-08T13:37:40;21.20;;;14.87;;
23800;SDS011;12081;48.614;10.226;2024-03-08T13:40:25;20.73;;;14.07;;
23800;SDS011;12081;48.614;10.226;2024-03-08T13:43:10;17.53;;;13.17;;
23800;SDS011;12081;48.614;10.226;2024-03-08T13:45:55;18.57;;;14.03;;
23800;SDS011;12081;48.614;10.226;2024-03-08T13:48:40;18.33;;;13.87;;
23800;SDS011;12081;48.614;10.226;2024-03-08T13:51:27;17.90;;;13.77;;
23800;SDS011;12081;48.614;10.226;2024-03-08T13:54:12;18.90;;;13.80;;
23800;SDS011;12081;48.614;10.226;2024-03-08T13:56:57;19.13;;;13.63;;
23800;SDS011;12081;48.614;10.226;2024-03-08T14:03:24;17.50;;;12.57;;
23800;SDS011;12081;48.614;10.226;2024-03-08T14:09:49;18.87;;;12.60;;
23800;SDS011;12081;48.614;10.226;2024-03-08T14:12:36;19.83;;;12.20;;
23800;SDS011;12081;48.614;10.226;2024-03-08T14:15:21;19.00;;;12.70;;
23800;SDS011;12081;48.614;10.226;2024-03-08T14:18:06;16.47;;;12.30;;
23800;SDS011;12081;48.614;10.226;2024-03-08T14:20:50;16.13;;;12.37;;
23800;SDS011;12081;48.614;10.226;2024-03-08T14:23:36;21.30;;;12.90;;
23800;SDS011;12081;48.614;10.226;2024-03-08T14:26:21;17.53;;;12.17;;
23800;SDS011;12081;48.614;10.226;2024-03-08T14:29:05;16.60;;;12.93;;
23800;SDS011;12081;48.614;10.226;2024-03-08T14:31:50;15.20;;;11.57;;
23800;SDS011;12081;48.614;10.226;2024-03-08T14:34:35;15.07;;;10.87;;
23800;SDS011;12081;48.614;10.226;2024-03-08T14:37:20;16.37;;;11.77;;
23800;SDS011;12081;48.614;10.226;2024-03-08T14:40:11;15.30;;;11.40;;
23800;SDS011;12081;48.614;10.226;2024-03-08T14:42:58;17.73;;;10.40;;
23800;SDS011;12081;48.614;10.226;2024-03-08T14:45:43;15.30;;;11.27;;
23800;SDS011;12081;48.614;10.226;2024-03-08T14:48:31;14.27;;;10.27;;
23800;SDS011;12081;48.614;10.226;2024-03-08T14:51:15;15.80;;;11.30;;
23800;SDS011;12081;48.614;10.226;2024-03-08T14:54:00;18.57;;;12.83;;
23800;SDS011;12081;48.614;10.226;2024-03-08T14:56:45;17.07;;;12.63;;
23800;SDS011;12081;48.614;10.226;2024-03-08T14:59:30;17.07;;;11.27;;
23800;SDS011;12081;48.614;10.226;2024-03-08T15:02:15;14.90;;;11.27;;
23800;SDS011;12081;48.614;10.226;2024-03-08T15:05:02;15.27;;;9.60;;
23800;SDS011;12081;48.614;10.226;2024-03-08T15:07:52;15.87;;;10.67;;
23800;SDS011;12081;48.614;10.226;2024-03-08T15:10:37;15.10;;;10.10;;
23800;SDS011;12081;48.614;10.226;2024-03-08T15:13:24;14.23;;;9.07;;
23800;SDS011;12081;48.614;10.226;2024-03-08T15:16:22;12.83;;;9.77;;
23800;SDS011;12081;48.614;10.226;2024-03-08T15:19:09;20.07;;;10.77;;
23800;SDS011;12081;48.614;10.226;2024-03-08T15:21:55;14.30;;;10.57;;
23800;SDS011;12081;48.614;10.226;2024-03-08T15:24:42;15.40;;;10.83;;
23800;SDS011;12081;48.614;10.226;2024-03-08T15:27:27;14.60;;;10.73;;
23800;SDS011;12081;48.614;10.226;2024-03-08T15:30:12;13.43;;;10.23;;
23800;SDS011;12081;48.614;10.226;2024-03-08T15:33:00;17.87;;;9.67;;
23800;SDS011;12081;48.614;10.226;2024-03-08T15:35:46;14.27;;;9.60;;
23800;SDS011;12081;48.614;10.226;2024-03-08T15:38:34;14.47;;;10.47;;
23800;SDS011;12081;48.614;10.226;2024-03-08T15:41:19;16.43;;;10.60;;
23800;SDS011;12081;48.614;10.226;2024-03-08T15:44:04;14.17;;;10.00;;
23800;SDS011;12081;48.614;10.226;2024-03-08T15:46:48;16.00;;;9.07;;
23800;SDS011;12081;48.614;10.226;2024-03-08T15:49:33;12.33;;;9.17;;
23800;SDS011;12081;48.614;10.226;2024-03-08T15:52:19;14.93;;;10.23;;
23800;SDS011;12081;48.614;10.226;2024-03-08T15:55:03;12.77;;;8.90;;
23800;SDS011;12081;48.614;10.226;2024-03-08T15:57:49;13.83;;;9.67;;
23800;SDS011;12081;48.614;10.226;2024-03-08T16:00:34;12.63;;;9.10;;
23800;SDS011;12081;48.614;10.226;2024-03-08T16:03:37;14.23;;;9.47;;
23800;SDS011;12081;48.614;10.226;2024-03-08T16:06:23;13.30;;;9.20;;
23800;SDS011;12081;48.614;10.226;2024-03-08T16:09:11;12.03;;;8.67;;
23800;SDS011;12081;48.614;10.226;2024-03-08T16:11:59;15.17;;;9.63;;
23800;SDS011;12081;48.614;10.226;2024-03-08T16:14:43;12.80;;;8.60;;
23800;SDS011;12081;48.614;10.226;2024-03-08T16:17:28;11.30;;;8.37;;
23800;SDS011;12081;48.614;10.226;2024-03-08T16:20:14;13.23;;;8.67;;
23800;SDS011;12081;48.614;10.226;2024-03-08T16:23:00;13.30;;;9.17;;
23800;SDS011;12081;48.614;10.226;2024-03-08T16:25:45;13.07;;;8.83;;